»·PEaware :: FDX258 KOAK-KONT

FDX258 :: KOAK-KONT

FLIGHT INFORMATION

Flight Status: Arrived
Operator:
Federal Express
More flights by this operator :: More flights under this callsign
Pilot: Brad M. (22842)
Aircraft: Unknown
(B77F)
More flights by this aircraft type
Origin: KOAK Metro Oakland Intl
United States
Destination: KONT Ontario Intl
United States
More flights between these airports :: More routes between these airports
Route: +CNDEL4 LOSHN EHF ZIGGY7
File this flight plan on PilotEdge
Remarks:
Altitude:
(Current/Filed)
37,000ft
Speed:
(Current/Filed)
492kts
Departed: 06-Oct-19 02:53 PM
Arrived: 06-Oct-19 03:52 PM
Distance/Time
Traveled:
314nm/0:59
Distance/Time
To Go:
Arrived

Flight Plot

Page will automatically refresh every two minutes.

Flight plan parsing failed; only flown route is shown


Map Options




Map Legend


Flown Route
Filed Route
Departure Airport
Arrival Airport
Navaid (VOR, NDB)
Fix

Horizontal Profiles

Position Reports

Time Latitude Longitude Heading Altitude Ground
Speed
06-Oct-19 14:05 37.717932 -122.219101 310 19ft 0kts
06-Oct-19 14:06 37.717932 -122.219101 310 19ft 0kts
06-Oct-19 14:07 37.717932 -122.219101 310 19ft 0kts
06-Oct-19 14:08 37.717932 -122.219101 310 19ft 0kts
06-Oct-19 14:09 37.717932 -122.219101 310 19ft 0kts
06-Oct-19 14:10 37.717932 -122.219101 310 19ft 0kts
06-Oct-19 14:11 37.717932 -122.219101 310 19ft 0kts
06-Oct-19 14:12 37.717932 -122.219101 310 19ft 0kts
06-Oct-19 14:13 37.717932 -122.219101 310 19ft 0kts
06-Oct-19 14:14 37.717932 -122.219101 310 19ft 0kts
06-Oct-19 14:15 37.717932 -122.219101 310 19ft 0kts
06-Oct-19 14:16 37.717932 -122.219101 310 19ft 0kts
06-Oct-19 14:17 37.717932 -122.219101 310 19ft 0kts
06-Oct-19 14:18 37.717932 -122.219101 310 19ft 0kts
06-Oct-19 14:19 37.717932 -122.219101 310 19ft 0kts
06-Oct-19 14:20 37.717932 -122.219101 310 19ft 0kts
06-Oct-19 14:21 37.717932 -122.219101 310 19ft 0kts
06-Oct-19 14:22 37.717932 -122.219101 310 19ft 0kts
06-Oct-19 14:23 37.717932 -122.219101 310 19ft 0kts
06-Oct-19 14:24 37.717932 -122.219101 310 19ft 0kts
06-Oct-19 14:25 37.717932 -122.219101 310 19ft 0kts
06-Oct-19 14:26 37.717932 -122.219101 310 19ft 0kts
06-Oct-19 14:27 37.717932 -122.219101 310 19ft 0kts
06-Oct-19 14:28 37.717932 -122.219101 310 19ft 0kts
06-Oct-19 14:29 37.717932 -122.219101 310 19ft 0kts
06-Oct-19 14:30 37.717932 -122.219101 310 19ft 0kts
06-Oct-19 14:31 37.717932 -122.219101 310 19ft 0kts
06-Oct-19 14:32 37.717932 -122.219101 310 19ft 0kts
06-Oct-19 14:33 37.717932 -122.219101 310 19ft 0kts
06-Oct-19 14:34 37.717932 -122.219101 310 19ft 0kts
06-Oct-19 14:35 37.717932 -122.219101 310 19ft 0kts
06-Oct-19 14:36 37.717932 -122.219101 310 19ft 0kts
06-Oct-19 14:37 37.717932 -122.219101 310 19ft 0kts
06-Oct-19 14:38 37.717827 -122.218935 296 19ft 2kts
06-Oct-19 14:39 37.717847 -122.218216 252 19ft 2kts
06-Oct-19 14:40 37.718042 -122.217832 232 19ft 0kts
06-Oct-19 14:41 37.718042 -122.217832 232 19ft 0kts
06-Oct-19 14:42 37.718042 -122.217832 232 19ft 0kts
06-Oct-19 14:43 37.718042 -122.217832 232 19ft 0kts
06-Oct-19 14:44 37.717244 -122.219065 228 19ft 12kts
06-Oct-19 14:45 37.715444 -122.220100 133 19ft 6kts
06-Oct-19 14:46 37.713875 -122.221105 229 19ft 10kts
06-Oct-19 14:47 37.711460 -122.223956 221 19ft 12kts
06-Oct-19 14:48 37.709414 -122.222376 129 19ft 9kts
06-Oct-19 14:49 37.707350 -122.219248 129 19ft 17kts
06-Oct-19 14:50 37.704500 -122.214959 129 19ft 14kts
06-Oct-19 14:51 37.701707 -122.214431 277 19ft 8kts
06-Oct-19 14:52 37.711127 -122.228713 309 19ft 152kts
06-Oct-19 14:53 37.744570 -122.278556 309 2092ft 211kts
06-Oct-19 14:54 37.787359 -122.344401 301 3856ft 264kts
06-Oct-19 14:55 37.761558 -122.422690 198 7689ft 284kts
06-Oct-19 14:56 37.680843 -122.433652 186 11291ft 299kts
06-Oct-19 14:57 37.590254 -122.451733 190 13539ft 366kts
06-Oct-19 14:58 37.487569 -122.437942 143 16138ft 404kts
06-Oct-19 14:59 37.403405 -122.340093 133 19319ft 420kts
06-Oct-19 15:00 37.327225 -122.224524 129 22142ft 439kts
06-Oct-19 15:01 37.248918 -122.102304 130 24685ft 457kts
06-Oct-19 15:02 37.167385 -121.976061 131 27084ft 475kts
06-Oct-19 15:03 37.082219 -121.845456 131 29243ft 493kts
06-Oct-19 15:04 36.994353 -121.711327 132 31690ft 496kts
06-Oct-19 15:05 36.906877 -121.578334 133 33889ft 495kts
06-Oct-19 15:06 36.818980 -121.445230 133 35604ft 497kts
06-Oct-19 15:07 36.730750 -121.312148 133 37024ft 499kts
06-Oct-19 15:08 36.642271 -121.178675 133 37048ft 500kts
06-Oct-19 15:09 36.553248 -121.045793 134 37047ft 500kts
06-Oct-19 15:10 36.464158 -120.912954 133 37049ft 501kts
06-Oct-19 15:11 36.375066 -120.779854 134 37053ft 502kts
06-Oct-19 15:12 36.285609 -120.646758 134 37056ft 503kts
06-Oct-19 15:13 36.196403 -120.513375 134 37058ft 504kts
06-Oct-19 15:14 36.106386 -120.379925 134 37062ft 505kts
06-Oct-19 15:15 36.016233 -120.246404 134 37062ft 506kts
06-Oct-19 15:16 35.925620 -120.113489 134 37062ft 506kts
06-Oct-19 15:17 35.838833 -119.976220 123 37062ft 513kts
06-Oct-19 15:18 35.775216 -119.818479 119 37063ft 515kts
06-Oct-19 15:19 35.711949 -119.660083 119 37060ft 516kts
06-Oct-19 15:20 35.648836 -119.501769 119 37060ft 516kts
06-Oct-19 15:21 35.585229 -119.343132 120 37060ft 517kts
06-Oct-19 15:22 35.520791 -119.184813 120 37058ft 518kts
06-Oct-19 15:23 35.438284 -119.045276 147 37061ft 500kts
06-Oct-19 15:24 35.324951 -118.945542 147 37070ft 503kts
06-Oct-19 15:25 35.214816 -118.840437 146 35035ft 501kts
06-Oct-19 15:26 35.105223 -118.737232 146 32821ft 492kts
06-Oct-19 15:27 35.012841 -118.615953 132 30727ft 487kts
06-Oct-19 15:28 34.926466 -118.491108 133 28627ft 475kts
06-Oct-19 15:29 34.842505 -118.369480 133 26527ft 462kts
06-Oct-19 15:30 34.761306 -118.250896 133 24475ft 449kts
06-Oct-19 15:31 34.685440 -118.141591 133 24204ft 402kts
06-Oct-19 15:32 34.619494 -118.039521 124 23940ft 373kts
06-Oct-19 15:33 34.567815 -117.924392 121 21512ft 395kts
06-Oct-19 15:34 34.514137 -117.806753 121 19285ft 401kts
06-Oct-19 15:35 34.459376 -117.687957 120 17005ft 403kts
06-Oct-19 15:36 34.405975 -117.572124 120 14802ft 382kts
06-Oct-19 15:37 34.357788 -117.467912 120 14154ft 322kts
06-Oct-19 15:39 34.315616 -117.375967 118 13957ft 306kts
06-Oct-19 15:40 34.276182 -117.286159 118 12634ft 298kts
06-Oct-19 15:41 34.237408 -117.199000 118 11166ft 289kts
06-Oct-19 15:42 34.188075 -117.142084 177 10225ft 228kts
06-Oct-19 15:43 34.127989 -117.145868 181 8809ft 211kts
06-Oct-19 15:44 34.086746 -117.184900 250 8542ft 213kts
06-Oct-19 15:45 34.067850 -117.258136 252 6850ft 233kts
06-Oct-19 15:46 34.057954 -117.332569 261 5561ft 210kts
06-Oct-19 15:47 34.054354 -117.396420 267 4220ft 169kts
06-Oct-19 15:48 34.054140 -117.450929 269 3045ft 157kts
06-Oct-19 15:49 34.054045 -117.503219 271 2173ft 156kts
06-Oct-19 15:50 34.054723 -117.553037 271 1411ft 137kts
06-Oct-19 15:51 34.054874 -117.597795 270 958ft 78kts
06-Oct-19 15:52 34.054927 -117.610778 262 957ft 19kts
06-Oct-19 15:53 34.054026 -117.612276 226 957ft 1kts

Navigation Log

Ident Type
Flight plan parsing failed, navigation log unavailable